Time;durP1;ratioP1;P1;durP2;ratioP2;P2;SDS_P1;SDS_P2;PMS_P1;PMS_P2;Temp;Humidity;BMP_temperature;BMP_pressure;BME280_temperature;BME280_humidity;BME280_pressure;Samples;Min_cycle;Max_cycle;Signal;HPM_P1;HPM_P2
2022/08/29 00:02:00;;;;;;;;;;;;;;;23.46;82.64;96933.48;534068;265;68567;-69
2022/08/29 00:04:28;;;;;;;;;;;;;;;23.46;82.63;96942.34;534013;265;62877;-69
2022/08/29 00:06:57;;;;;;;;;;;;;;;23.46;82.67;96936.16;534190;265;66786;-69
2022/08/29 00:09:25;;;;;;;;;;;;;;;23.44;82.71;96931.09;534130;265;68797;-69
2022/08/29 00:11:52;;;;;;;;;;;;;;;23.46;82.70;96938.84;534137;265;65330;-69
2022/08/29 00:14:20;;;;;;;;;;;;;;;23.46;82.69;96936.16;534131;265;68943;-69
2022/08/29 00:16:47;;;;;;;;;;;;;;;23.45;82.70;96935.36;534094;263;68764;-69
2022/08/29 00:19:15;;;;;;;;;;;;;;;23.45;82.71;96932.69;534104;265;65200;-69
2022/08/29 00:21:42;;;;;;;;;;;;;;;23.46;82.71;96938.84;534105;265;69269;-69
2022/08/29 00:24:10;;;;;;;;;;;;;;;23.46;82.72;96933.48;532774;262;66581;-69
2022/08/29 00:26:37;;;;;;;;;;;;;;;23.46;82.71;96933.48;531326;264;62862;-69
2022/08/29 00:29:05;;;;;;;;;;;;;;;23.46;82.70;96933.48;531219;266;66549;-69
2022/08/29 00:31:32;;;;;;;;;;;;;;;23.44;82.72;96932.98;531169;267;67198;-69
2022/08/29 00:34:00;;;;;;;;;;;;;;;23.45;82.77;96929.21;531124;267;64912;-69
2022/08/29 00:36:27;;;;;;;;;;;;;;;23.45;82.77;96929.21;531377;264;68730;-69
2022/08/29 00:41:36;;;;;;;;;;;;;;;23.44;82.73;96928.42;535827;264;39243;-67
2022/08/29 00:44:04;;;;;;;;;;;;;;;23.45;82.74;96932.69;535937;263;66566;-67
2022/08/29 00:46:45;;;;;;;;;;;;;;;23.45;82.80;96932.69;535802;264;68785;-67
2022/08/29 00:49:23;;;;;;;;;;;;;;;23.45;82.79;96926.53;535909;263;62946;-67
2022/08/29 00:51:52;;;;;;;;;;;;;;;23.45;82.78;96923.84;535955;261;68782;-66
2022/08/29 00:54:24;;;;;;;;;;;;;;;23.45;82.80;96926.53;535953;264;68778;-68
2022/08/29 00:56:52;;;;;;;;;;;;;;;23.45;82.78;96921.16;536154;262;66229;-68
2022/08/29 00:59:21;;;;;;;;;;;;;;;23.45;82.81;96929.21;536226;261;68639;-68
2022/08/29 01:01:50;;;;;;;;;;;;;;;23.45;82.82;96915.80;535858;260;68747;-68
2022/08/29 01:04:20;;;;;;;;;;;;;;;23.44;82.84;96919.58;535848;263;65572;-68
2022/08/29 01:06:48;;;;;;;;;;;;;;;23.44;82.83;96915.01;536184;261;67095;-66
2022/08/29 01:09:16;;;;;;;;;;;;;;;23.43;82.83;96913.39;535885;263;66840;-66
2022/08/29 01:14:30;;;;;;;;;;;;;;;23.44;82.85;96914.22;528675;268;68856;-67
2022/08/29 01:16:59;;;;;;;;;;;;;;;23.44;82.83;96908.85;528698;267;66554;-66
2022/08/29 01:19:32;;;;;;;;;;;;;;;23.45;82.87;96913.12;528666;267;63165;-67
2022/08/29 01:22:01;;;;;;;;;;;;;;;23.45;82.85;96915.80;528655;268;66602;-67
2022/08/29 01:24:31;;;;;;;;;;;;;;;23.43;82.86;96902.67;528577;268;66912;-67
2022/08/29 01:26:59;;;;;;;;;;;;;;;23.44;82.88;96916.90;528619;267;62837;-67
2022/08/29 01:29:28;;;;;;;;;;;;;;;23.44;82.83;96915.01;528700;268;68993;-67
2022/08/29 01:31:56;;;;;;;;;;;;;;;23.44;82.84;96914.22;528661;267;69544;-67
2022/08/29 01:34:25;;;;;;;;;;;;;;;23.44;82.84;96915.01;528697;267;63156;-67
2022/08/29 01:36:55;;;;;;;;;;;;;;;23.44;82.86;96914.22;528684;268;66413;-67
2022/08/29 01:39:28;;;;;;;;;;;;;;;23.45;82.82;96921.16;528603;267;66568;-66
2022/08/29 01:41:57;;;;;;;;;;;;;;;23.44;82.82;96919.58;528691;267;63984;-67
2022/08/29 01:44:25;;;;;;;;;;;;;;;23.44;82.84;96922.27;528640;267;69088;-67
2022/08/29 01:46:55;;;;;;;;;;;;;;;23.43;82.82;96921.44;528673;268;66576;-67
2022/08/29 01:49:24;;;;;;;;;;;;;;;23.44;82.82;96923.05;528706;267;64994;-67
2022/08/29 01:51:52;;;;;;;;;;;;;;;23.44;82.86;96922.27;528718;268;69066;-67
2022/08/29 01:54:20;;;;;;;;;;;;;;;23.44;82.88;96919.58;528637;268;66925;-67
2022/08/29 01:56:50;;;;;;;;;;;;;;;23.44;82.90;96925.73;528693;268;63144;-67
2022/08/29 01:59:20;;;;;;;;;;;;;;;23.44;82.90;96914.22;528661;268;66809;-67
2022/08/29 02:01:50;;;;;;;;;;;;;;;23.44;82.90;96914.22;528654;267;66326;-67
2022/08/29 02:04:19;;;;;;;;;;;;;;;23.44;82.98;96914.22;527951;267;65172;-67
2022/08/29 02:06:47;;;;;;;;;;;;;;;23.45;82.92;96915.80;528683;268;68991;-67
2022/08/29 02:09:16;;;;;;;;;;;;;;;23.43;82.91;96910.71;528728;268;66486;-67
2022/08/29 02:11:45;;;;;;;;;;;;;;;23.44;82.93;96922.27;526737;267;65269;-67
2022/08/29 02:14:13;;;;;;;;;;;;;;;23.44;82.92;96916.90;525750;270;66556;-67
2022/08/29 02:16:41;;;;;;;;;;;;;;;23.44;82.89;96912.33;526490;267;68584;-67
2022/08/29 02:19:09;;;;;;;;;;;;;;;23.44;82.91;96915.01;525901;267;65203;-67
2022/08/29 02:21:37;;;;;;;;;;;;;;;23.44;82.92;96908.85;525855;267;66895;-67
2022/08/29 02:24:06;;;;;;;;;;;;;;;23.44;82.91;96901.60;525912;267;68749;-67
2022/08/29 02:26:34;;;;;;;;;;;;;;;23.44;82.90;96911.53;525762;267;62926;-67
2022/08/29 02:29:02;;;;;;;;;;;;;;;23.44;82.91;96909.64;526148;267;66804;-67
2022/08/29 02:31:31;;;;;;;;;;;;;;;23.44;82.90;96916.90;525723;269;67040;-67
2022/08/29 02:33:58;;;;;;;;;;;;;;;23.44;82.88;96912.33;525850;267;65089;-67
2022/08/29 02:36:27;;;;;;;;;;;;;;;23.44;82.89;96914.22;525810;267;68941;-67
2022/08/29 02:38:55;;;;;;;;;;;;;;;23.44;82.90;96919.58;525732;270;68791;-67
2022/08/29 02:41:24;;;;;;;;;;;;;;;23.44;82.91;96916.90;525810;267;65210;-67
2022/08/29 02:43:52;;;;;;;;;;;;;;;23.44;82.90;96924.94;525704;270;66885;-67
2022/08/29 02:46:20;;;;;;;;;;;;;;;23.44;82.90;96919.58;525845;267;68821;-67
2022/08/29 02:48:49;;;;;;;;;;;;;;;23.44;82.88;96924.94;525813;267;65204;-67
2022/08/29 02:51:26;;;;;;;;;;;;;;;23.43;82.88;96926.80;525949;267;68994;-67
2022/08/29 02:53:56;;;;;;;;;;;;;;;23.43;82.90;96926.80;525714;270;67060;-67
2022/08/29 02:56:25;;;;;;;;;;;;;;;23.43;82.93;96918.76;525756;270;65264;-67
2022/08/29 02:58:53;;;;;;;;;;;;;;;23.43;82.93;96924.13;525746;270;69094;-66
2022/08/29 03:01:22;;;;;;;;;;;;;;;23.44;82.91;96924.94;525772;270;66530;-67
2022/08/29 03:03:51;;;;;;;;;;;;;;;23.44;82.93;96924.94;525761;270;63247;-67
2022/08/29 03:06:20;;;;;;;;;;;;;;;23.44;82.90;96925.73;525891;267;68986;-67
2022/08/29 03:08:49;;;;;;;;;;;;;;;23.44;82.93;96930.31;525853;269;69209;-67
2022/08/29 03:11:17;;;;;;;;;;;;;;;23.44;82.92;96924.94;525747;267;63010;-68
2022/08/29 03:13:46;;;;;;;;;;;;;;;23.43;82.86;96934.06;525855;267;66939;-67
2022/08/29 03:16:15;;;;;;;;;;;;;;;23.43;82.90;96934.84;525735;270;68827;-67
2022/08/29 03:18:43;;;;;;;;;;;;;;;23.43;82.90;96934.84;525792;267;64965;-67
2022/08/29 03:21:19;;;;;;;;;;;;;;;23.43;82.89;96937.53;525741;270;69038;-67
2022/08/29 03:23:48;;;;;;;;;;;;;;;23.44;82.93;96941.03;525780;270;66767;-66
2022/08/29 03:26:16;;;;;;;;;;;;;;;23.44;82.86;96938.35;525760;270;63109;-66
2022/08/29 03:28:44;;;;;;;;;;;;;;;23.43;82.91;96939.42;525738;270;68813;-66
2022/08/29 03:31:12;;;;;;;;;;;;;;;23.44;82.91;96943.72;525747;270;66631;-67
2022/08/29 03:33:41;;;;;;;;;;;;;;;23.43;82.94;96934.06;525734;269;63165;-66
2022/08/29 03:36:09;;;;;;;;;;;;;;;23.42;82.96;96935.16;525783;270;69017;-66
2022/08/29 03:38:38;;;;;;;;;;;;;;;23.43;82.96;96947.47;525760;267;68886;-66
2022/08/29 03:41:07;;;;;;;;;;;;;;;23.43;82.96;96942.89;525821;269;65178;-66
2022/08/29 03:43:36;;;;;;;;;;;;;;;23.43;82.95;96944.78;525822;267;69247;-66
2022/08/29 03:46:04;;;;;;;;;;;;;;;23.42;82.96;96943.99;525768;270;68910;-66
2022/08/29 03:48:32;;;;;;;;;;;;;;;23.43;82.94;96948.26;526544;267;63084;-66
2022/08/29 03:51:02;;;;;;;;;;;;;;;23.43;82.95;96944.78;526595;267;66679;-66
2022/08/29 03:53:32;;;;;;;;;;;;;;;23.43;82.94;96947.47;531233;265;66640;-68
2022/08/29 03:56:00;;;;;;;;;;;;;;;23.43;82.93;96955.52;534197;265;65168;-68
2022/08/29 03:58:28;;;;;;;;;;;;;;;23.42;82.93;96957.41;534169;265;68635;-68
2022/08/29 04:00:57;;;;;;;;;;;;;;;23.43;82.92;96956.30;533941;265;68544;-68
2022/08/29 04:03:26;;;;;;;;;;;;;;;23.43;82.91;96963.56;534090;265;65139;-68
2022/08/29 04:05:54;;;;;;;;;;;;;;;23.43;82.96;96967.03;534142;265;68616;-68
2022/08/29 04:08:22;;;;;;;;;;;;;;;23.43;82.93;96960.87;534170;265;68591;-68
2022/08/29 04:10:50;;;;;;;;;;;;;;;23.43;82.94;96963.56;534215;263;65159;-68
2022/08/29 04:13:18;;;;;;;;;;;;;;;23.43;82.98;96968.92;534171;265;68704;-68
2022/08/29 04:15:46;;;;;;;;;;;;;;;23.43;82.96;96968.92;534201;265;68470;-68
2022/08/29 04:18:14;;;;;;;;;;;;;;;23.42;82.98;96965.45;534155;265;65292;-68
2022/08/29 04:20:43;;;;;;;;;;;;;;;23.43;82.96;96963.56;534071;265;66729;-68
2022/08/29 04:23:12;;;;;;;;;;;;;;;23.43;82.96;96966.23;534150;265;68988;-68
2022/08/29 04:25:42;;;;;;;;;;;;;;;23.43;83.01;96969.72;534169;265;65157;-67
2022/08/29 04:28:12;;;;;;;;;;;;;;;23.42;83.00;96970.81;534146;265;66784;-68
2022/08/29 04:30:40;;;;;;;;;;;;;;;23.43;82.99;96971.61;534153;265;68961;-68
2022/08/29 04:33:09;;;;;;;;;;;;;;;23.44;82.97;96981.27;534097;265;62978;-68
2022/08/29 04:35:38;;;;;;;;;;;;;;;23.43;82.99;96979.65;534085;265;66742;-68
2022/08/29 04:38:08;;;;;;;;;;;;;;;23.42;82.99;96973.49;534188;265;66782;-68
2022/08/29 04:40:39;;;;;;;;;;;;;;;23.42;82.99;96975.38;534185;265;65186;-68
2022/08/29 04:43:07;;;;;;;;;;;;;;;23.43;83.01;96979.65;534071;265;66511;-68
2022/08/29 04:45:35;;;;;;;;;;;;;;;23.42;83.00;96975.38;534165;265;68573;-68
2022/08/29 04:48:04;;;;;;;;;;;;;;;23.42;83.03;96973.49;534163;265;65231;-67
2022/08/29 04:50:32;;;;;;;;;;;;;;;23.42;83.01;96975.38;534059;265;69174;-68
2022/08/29 04:53:02;;;;;;;;;;;;;;;23.42;83.04;96978.86;533111;261;68994;-68
2022/08/29 04:55:30;;;;;;;;;;;;;;;23.42;83.03;96978.86;531218;266;65660;-68
2022/08/29 04:57:58;;;;;;;;;;;;;;;23.42;83.01;96981.54;531146;267;66706;-68
2022/08/29 05:00:28;;;;;;;;;;;;;;;23.43;83.00;96982.33;531230;266;66915;-68
2022/08/29 05:02:57;;;;;;;;;;;;;;;23.43;83.00;96985.02;531177;267;63076;-68
2022/08/29 05:05:25;;;;;;;;;;;;;;;23.42;83.01;96983.42;531250;266;68658;-68
2022/08/29 05:07:53;;;;;;;;;;;;;;;23.42;82.97;96975.38;531171;267;68519;-68
2022/08/29 05:10:25;;;;;;;;;;;;;;;23.41;82.98;96979.95;531304;266;65221;-68
2022/08/29 05:12:53;;;;;;;;;;;;;;;23.42;83.00;96986.91;531167;267;68675;-68
2022/08/29 05:18:04;;;;;;;;;;;;;;;23.42;82.97;96980.75;534103;265;39017;-68
2022/08/29 05:23:06;;;;;;;;;;;;;;;23.42;83.00;96991.47;529278;264;39021;-69
2022/08/29 05:25:36;;;;;;;;;;;;;;;23.42;83.03;96989.58;530629;260;65229;-68
2022/08/29 05:28:05;;;;;;;;;;;;;;;23.42;83.02;96994.95;536845;261;68587;-67
2022/08/29 05:33:23;;;;;;;;;;;;;;;23.42;83.04;96992.27;536013;264;38911;-66
2022/08/29 05:35:51;;;;;;;;;;;;;;;23.42;83.04;96983.42;535939;264;68608;-67
2022/08/29 05:38:20;;;;;;;;;;;;;;;23.42;83.08;96986.11;536311;261;66730;-67
2022/08/29 05:40:49;;;;;;;;;;;;;;;23.42;83.09;96988.80;535969;263;65498;-67
2022/08/29 05:43:17;;;;;;;;;;;;;;;23.41;83.05;96989.89;532496;261;68618;-65
2022/08/29 05:45:45;;;;;;;;;;;;;;;23.42;82.76;96992.27;528834;268;66428;-65
2022/08/29 05:48:16;;;;;;;;;;;;;;;23.44;82.77;96989.31;528386;267;63087;-71
2022/08/29 05:50:44;;;;;;;;;;;;;;;23.45;82.85;96983.64;528723;268;66684;-72
2022/08/29 05:53:15;;;;;;;;;;;;;;;23.47;82.60;96983.37;528530;267;68597;-70
2022/08/29 05:55:43;;;;;;;;;;;;;;;23.47;82.34;96986.84;528750;267;65250;-69
2022/08/29 05:58:12;;;;;;;;;;;;;;;23.46;80.71;96981.75;528667;267;68521;-71
2022/08/29 06:00:41;;;;;;;;;;;;;;;23.45;81.14;96985.53;528715;268;68618;-70
2022/08/29 06:03:10;;;;;;;;;;;;;;;23.43;81.12;96985.80;528647;264;65347;-70
2022/08/29 06:05:39;;;;;;;;;;;;;;;23.42;81.00;96991.47;528671;268;68938;-70
2022/08/29 06:08:10;;;;;;;;;;;;;;;23.42;80.88;96991.47;528736;268;66535;-70
2022/08/29 06:10:44;;;;;;;;;;;;;;;23.42;80.74;96992.27;528711;268;65163;-70
2022/08/29 06:13:12;;;;;;;;;;;;;;;23.41;80.61;96993.36;528765;268;68481;-71
2022/08/29 06:15:44;;;;;;;;;;;;;;;23.39;79.77;96995.52;528698;268;66655;-71
2022/08/29 06:18:12;;;;;;;;;;;;;;;23.40;80.10;96996.32;528735;268;65058;-68
2022/08/29 06:20:40;;;;;;;;;;;;;;;23.40;80.36;96999.80;528697;268;68630;-72
2022/08/29 06:23:09;;;;;;;;;;;;;;;23.40;80.38;96993.64;528700;268;68258;-69
2022/08/29 06:25:37;;;;;;;;;;;;;;;23.41;80.62;96995.25;528769;268;65234;-62
2022/08/29 06:28:06;;;;;;;;;;;;;;;23.41;80.22;96998.73;528683;268;66500;-69
2022/08/29 06:30:37;;;;;;;;;;;;;;;23.43;75.15;97001.11;528490;268;48462;-69
2022/08/29 06:33:07;;;;;;;;;;;;;;;23.46;75.65;96997.84;528720;268;65392;-68
2022/08/29 06:35:36;;;;;;;;;;;;;;;23.49;78.14;97002.66;528649;268;68830;-70
2022/08/29 06:38:04;;;;;;;;;;;;;;;23.51;79.34;97005.83;528849;268;66484;-70
2022/08/29 06:40:33;;;;;;;;;;;;;;;23.52;79.79;97004.77;528773;268;65268;-71
2022/08/29 06:43:01;;;;;;;;;;;;;;;23.53;79.93;97008.24;528724;267;66502;-71
2022/08/29 06:45:29;;;;;;;;;;;;;;;23.53;79.63;97014.40;528765;268;68239;-70
2022/08/29 06:47:59;;;;;;;;;;;;;;;23.52;78.76;97018.18;528688;267;63256;-70
2022/08/29 06:50:27;;;;;;;;;;;;;;;23.51;80.01;97015.77;528761;268;68603;-70
2022/08/29 06:52:55;;;;;;;;;;;;;;;23.49;80.47;97008.81;530057;264;68850;-71
2022/08/29 06:55:24;;;;;;;;;;;;;;;23.51;79.08;97016.56;536090;264;65013;-71
2022/08/29 06:57:55;;;;;;;;;;;;;;;23.52;80.09;97018.18;536169;264;68741;-69
2022/08/29 07:00:26;;;;;;;;;;;;;;;23.52;80.01;97018.18;536066;264;66244;-69
2022/08/29 07:02:54;;;;;;;;;;;;;;;23.55;79.96;97022.17;536132;264;65949;-68
2022/08/29 07:05:23;;;;;;;;;;;;;;;23.55;79.87;97025.64;536096;264;68420;-69
2022/08/29 07:07:52;;;;;;;;;;;;;;;23.55;79.73;97022.17;536094;264;68602;-69
2022/08/29 07:10:20;;;;;;;;;;;;;;;23.55;79.71;97025.64;536121;264;65121;-70
2022/08/29 07:12:48;;;;;;;;;;;;;;;23.55;77.41;97022.17;536082;264;68363;-69
2022/08/29 07:15:16;;;;;;;;;;;;;;;23.54;78.58;97026.72;536109;264;66522;-69
2022/08/29 07:17:44;;;;;;;;;;;;;;;23.52;79.22;97022.72;536087;264;63108;-69
2022/08/29 07:20:12;;;;;;;;;;;;;;;23.51;79.15;97016.56;533184;264;68932;-72
2022/08/29 07:22:40;;;;;;;;;;;;;;;23.49;78.98;97021.44;534002;265;68508;-70
2022/08/29 07:25:09;;;;;;;;;;;;;;;23.48;79.01;97017.94;534020;265;63232;-69
2022/08/29 07:27:37;;;;;;;;;;;;;;;23.49;79.03;97029.48;534028;265;68804;-68
2022/08/29 07:30:06;;;;;;;;;;;;;;;23.48;77.49;97027.87;534030;265;66499;-69
2022/08/29 07:32:34;;;;;;;;;;;;;;;23.49;78.82;97042.89;534030;265;63096;-69
2022/08/29 07:35:02;;;;;;;;;;;;;;;23.49;79.54;97029.48;534031;265;68586;-69
2022/08/29 07:37:32;;;;;;;;;;;;;;;23.49;79.71;97038.33;533820;265;68672;-69
2022/08/29 07:40:00;;;;;;;;;;;;;;;23.49;79.96;97038.33;533836;265;65465;-69
2022/08/29 07:42:28;;;;;;;;;;;;;;;23.49;80.20;97029.48;532463;264;68580;-69
2022/08/29 07:44:57;;;;;;;;;;;;;;;23.49;80.32;97027.59;531910;264;66559;-69
2022/08/29 07:47:28;;;;;;;;;;;;;;;23.49;80.45;97035.64;534015;265;65120;-70
2022/08/29 07:49:58;;;;;;;;;;;;;;;23.49;80.60;97034.84;532332;264;68607;-69
2022/08/29 07:52:26;;;;;;;;;;;;;;;23.50;80.80;97023.02;531831;264;66544;-67
2022/08/29 07:54:54;;;;;;;;;;;;;;;23.50;80.94;97023.02;534041;265;65219;-66
2022/08/29 07:57:22;;;;;;;;;;;;;;;23.50;81.10;97025.70;534057;265;66429;-67
2022/08/29 07:59:50;;;;;;;;;;;;;;;23.50;81.34;97033.75;534045;265;67978;-67
2022/08/29 08:02:20;;;;;;;;;;;;;;;23.50;81.67;97031.06;534059;265;65240;-65
2022/08/29 08:04:48;;;;;;;;;;;;;;;23.52;81.21;97036.13;534058;265;66104;-66
2022/08/29 08:07:17;;;;;;;;;;;;;;;23.51;81.32;97032.66;534001;265;66596;-64
2022/08/29 08:09:47;;;;;;;;;;;;;;;23.51;81.64;97032.66;534061;265;63073;-66
2022/08/29 08:12:15;;;;;;;;;;;;;;;23.52;81.95;97033.45;534043;265;66380;-66
2022/08/29 08:14:43;;;;;;;;;;;;;;;23.51;82.04;97035.34;534049;265;68186;-66
2022/08/29 08:17:11;;;;;;;;;;;;;;;23.52;81.90;97033.45;534042;265;65160;-65
2022/08/29 08:19:39;;;;;;;;;;;;;;;23.51;81.97;97032.66;534074;265;68406;-66
2022/08/29 08:22:07;;;;;;;;;;;;;;;23.52;81.92;97041.49;534003;265;66537;-68
2022/08/29 08:24:35;;;;;;;;;;;;;;;23.51;80.35;97038.02;534050;265;63062;-68
2022/08/29 08:27:03;;;;;;;;;;;;;;;23.53;82.07;97035.06;534006;265;68427;-68
2022/08/29 08:29:33;;;;;;;;;;;;;;;23.53;82.34;97041.22;533698;265;48136;-66
2022/08/29 08:32:01;;;;;;;;;;;;;;;23.52;82.35;97038.81;533102;264;65168;-63
2022/08/29 08:34:29;;;;;;;;;;;;;;;23.52;82.35;97050.36;529225;264;66823;-65
2022/08/29 08:36:58;;;;;;;;;;;;;;;23.53;82.32;97051.95;528759;265;68754;-66
2022/08/29 08:39:26;;;;;;;;;;;;;;;23.53;82.35;97045.80;528694;268;65102;-65
2022/08/29 08:42:10;;;;;;;;;;;;;;;23.53;82.24;97051.95;528773;268;66476;-66
2022/08/29 08:44:48;;;;;;;;;;;;;;;23.53;82.11;97051.95;523286;270;66554;-65
2022/08/29 08:47:17;;;;;;;;;;;;;;;23.53;82.04;97048.48;523010;271;65212;-65
2022/08/29 08:49:48;;;;;;;;;;;;;;;23.53;81.93;97062.68;523331;270;68421;-65
2022/08/29 08:52:19;;;;;;;;;;;;;;;23.53;81.99;97062.68;523325;271;66547;-66
2022/08/29 08:54:50;;;;;;;;;;;;;;;23.53;81.93;97062.68;523242;271;65309;-64
2022/08/29 08:57:20;;;;;;;;;;;;;;;23.53;81.97;97057.31;523456;270;68634;-65
2022/08/29 08:59:49;;;;;;;;;;;;;;;23.53;81.92;97057.31;523259;270;66614;-65
2022/08/29 09:02:19;;;;;;;;;;;;;;;23.53;81.94;97057.31;520518;270;63351;-65
2022/08/29 09:04:55;;;;;;;;;;;;;;;23.54;81.90;97064.27;519600;270;68610;-66
2022/08/29 09:07:38;;;;;;;;;;;;;;;23.54;82.01;97066.95;526394;267;66528;-65
2022/08/29 09:10:11;;;;;;;;;;;;;;;23.54;82.04;97064.27;528630;268;65102;-64
2022/08/29 09:12:47;;;;;;;;;;;;;;;23.54;82.01;97068.84;528503;268;68749;-64
2022/08/29 09:15:22;;;;;;;;;;;;;;;23.67;82.11;97055.53;636034;221;35611;-64
2022/08/29 09:17:52;;;;;;;;;;;;;;;23.54;82.13;97058.11;622223;226;63842;-64
2022/08/29 09:20:21;;;;;;;;;;;;;;;23.54;82.21;97056.22;621310;225;64586;-63
2022/08/29 09:22:59;;;;;;;;;;;;;;;23.54;82.21;97056.22;620048;226;62514;-63
2022/08/29 09:25:35;;;;;;;;;;;;;;;23.54;82.23;97055.42;622816;226;62815;-65
2022/08/29 09:27:58;;;;;;;;;;;;;;;23.54;82.30;97045.48;622469;226;64511;-65
2022/08/29 09:30:28;;;;;;;;;;;;;;;23.54;82.32;97050.86;619049;226;64273;-65
2022/08/29 09:33:09;;;;;;;;;;;;;;;23.54;82.29;97042.81;621902;226;63156;-62
2022/08/29 09:35:39;;;;;;;;;;;;;;;23.54;82.34;97042.81;621820;226;64641;-63
2022/08/29 09:38:19;;;;;;;;;;;;;;;23.54;82.37;97042.81;618866;228;61976;-63
2022/08/29 09:40:48;;;;;;;;;;;;;;;23.54;82.38;97042.81;619112;229;65046;-63
2022/08/29 09:43:18;;;;;;;;;;;;;;;23.54;82.38;97040.12;619000;229;64613;-63
2022/08/29 09:46:04;;;;;;;;;;;;;;;23.54;82.35;97042.02;619014;229;64385;-63
2022/08/29 09:48:33;;;;;;;;;;;;;;;23.54;82.40;97037.44;618921;228;63032;-68
2022/08/29 09:51:15;;;;;;;;;;;;;;;23.54;82.32;97045.48;618987;229;64751;-66
2022/08/29 09:53:43;;;;;;;;;;;;;;;23.55;82.37;97052.47;619058;229;62415;-71
2022/08/29 09:56:13;;;;;;;;;;;;;;;23.54;82.33;97053.53;619041;229;62849;-70
2022/08/29 09:58:41;;;;;;;;;;;;;;;23.55;82.38;97057.05;618968;228;64536;-70
2022/08/29 10:01:11;;;;;;;;;;;;;;;23.55;82.52;97055.16;619105;227;62274;-70
2022/08/29 10:03:44;;;;;;;;;;;;;;;23.56;82.55;97053.27;618812;228;65048;-66
2022/08/29 10:06:13;;;;;;;;;;;;;;;23.56;82.66;97054.05;618886;228;62091;-64
2022/08/29 10:08:42;;;;;;;;;;;;;;;23.56;82.76;97050.58;619092;229;62059;-64
2022/08/29 10:11:18;;;;;;;;;;;;;;;23.55;82.87;97044.42;619046;229;64826;-64
2022/08/29 10:13:51;;;;;;;;;;;;;;;23.55;83.00;97049.00;618978;229;64463;-65
2022/08/29 10:16:23;;;;;;;;;;;;;;;23.55;82.90;97043.63;619082;229;61486;-66
2022/08/29 10:18:53;;;;;;;;;;;;;;;23.55;82.87;97039.06;619000;229;64470;-66
2022/08/29 10:21:35;;;;;;;;;;;;;;;23.55;82.79;97043.63;619081;229;65480;-66
2022/08/29 10:24:16;;;;;;;;;;;;;;;23.54;82.79;97029.39;619031;229;64358;-66
2022/08/29 10:26:49;;;;;;;;;;;;;;;23.56;82.73;97037.96;618792;228;65012;-62
2022/08/29 10:29:30;;;;;;;;;;;;;;;23.56;82.70;97037.96;619007;229;62174;-65
2022/08/29 10:32:16;;;;;;;;;;;;;;;23.55;82.59;97032.91;618549;228;62276;-66
2022/08/29 10:34:47;;;;;;;;;;;;;;;23.55;82.66;97039.06;619059;228;47440;-65
2022/08/29 10:37:33;;;;;;;;;;;;;;;23.55;82.60;97032.91;618922;229;64777;-65
2022/08/29 10:40:03;;;;;;;;;;;;;;;23.56;82.59;97029.13;618928;227;64571;-66
2022/08/29 10:42:35;;;;;;;;;;;;;;;23.56;82.57;97023.76;618867;229;62758;-66
2022/08/29 10:45:17;;;;;;;;;;;;;;;23.55;82.59;97022.97;618962;229;64919;-66
2022/08/29 10:47:49;;;;;;;;;;;;;;;23.55;82.59;97017.59;618706;227;62299;-67
2022/08/29 10:50:22;;;;;;;;;;;;;;;23.55;82.61;97017.59;618917;229;63826;-69
2022/08/29 10:53:04;;;;;;;;;;;;;;;23.55;82.60;97014.13;618739;228;62516;-65
2022/08/29 10:55:49;;;;;;;;;;;;;;;23.55;82.62;97017.59;618968;229;64186;-68
2022/08/29 10:58:19;;;;;;;;;;;;;;;23.55;82.61;97006.88;618943;229;65242;-62
2022/08/29 11:01:00;;;;;;;;;;;;;;;23.56;82.17;97003.09;618843;228;64943;-66
2022/08/29 11:03:34;;;;;;;;;;;;;;;23.56;81.59;97005.77;618910;229;64489;-66
2022/08/29 11:06:02;;;;;;;;;;;;;;;23.58;81.60;97005.50;618982;228;69837;-64
2022/08/29 11:08:36;;;;;;;;;;;;;;;23.58;82.45;97002.81;618792;228;70219;-66
2022/08/29 11:11:04;;;;;;;;;;;;;;;23.58;82.71;97000.92;619013;229;61871;-65
2022/08/29 11:13:37;;;;;;;;;;;;;;;23.57;82.74;96988.61;618605;229;62461;-65
2022/08/29 11:16:06;;;;;;;;;;;;;;;23.58;82.70;97000.92;617754;228;64583;-66
2022/08/29 11:18:51;;;;;;;;;;;;;;;23.58;82.69;96986.72;617827;229;64285;-66
2022/08/29 11:21:22;;;;;;;;;;;;;;;23.57;82.64;96980.56;617766;229;63084;-69
2022/08/29 11:23:51;;;;;;;;;;;;;;;23.58;82.64;96978.67;617213;228;62933;-67
2022/08/29 11:26:32;;;;;;;;;;;;;;;23.58;82.62;96975.99;617820;229;64440;-67
2022/08/29 11:29:04;;;;;;;;;;;;;;;23.57;82.60;96977.88;617654;228;65016;-67
2022/08/29 11:31:50;;;;;;;;;;;;;;;23.58;82.55;96984.83;617848;229;65114;-67
2022/08/29 11:34:36;;;;;;;;;;;;;;;23.58;82.50;96979.47;618570;227;62224;-66
2022/08/29 11:37:22;;;;;;;;;;;;;;;23.58;82.46;96976.78;621608;227;65319;-68
2022/08/29 11:40:03;;;;;;;;;;;;;;;23.58;82.49;96974.10;621072;227;64785;-67
2022/08/29 11:42:29;;;;;;;;;;;;;;;23.58;82.52;96965.26;619365;227;64390;-65
2022/08/29 11:44:59;;;;;;;;;;;;;;;23.58;82.46;96963.37;619725;227;65225;-66
2022/08/29 11:47:34;;;;;;;;;;;;;;;23.58;82.49;96959.89;622725;227;64756;-66
2022/08/29 11:50:04;;;;;;;;;;;;;;;23.58;82.28;96957.21;624574;226;64468;-66
2022/08/29 11:52:33;;;;;;;;;;;;;;;23.58;82.29;96952.64;620448;227;65930;-65
2022/08/29 11:55:12;;;;;;;;;;;;;;;23.58;82.32;96958.01;622342;227;62506;-67
2022/08/29 11:57:48;;;;;;;;;;;;;;;23.58;82.35;96949.95;624451;227;62945;-66
2022/08/29 12:00:26;;;;;;;;;;;;;;;23.58;82.42;96941.91;624640;227;63054;-67
2022/08/29 12:02:54;;;;;;;;;;;;;;;23.60;82.39;96938.92;624812;226;62260;-67
2022/08/29 12:05:30;;;;;;;;;;;;;;;23.59;82.37;96932.77;624950;227;62324;-67
2022/08/29 12:08:00;;;;;;;;;;;;;;;23.60;82.37;96928.19;624823;227;62746;-66
2022/08/29 12:10:30;;;;;;;;;;;;;;;23.59;82.33;96918.56;624918;227;64413;-66
2022/08/29 12:13:00;;;;;;;;;;;;;;;23.59;82.27;96924.72;624832;226;64372;-67
2022/08/29 12:15:32;;;;;;;;;;;;;;;23.60;82.02;96922.83;626080;226;65189;-66
2022/08/29 12:18:17;;;;;;;;;;;;;;;23.65;77.87;96926.27;626082;226;64663;-69
2022/08/29 12:20:46;;;;;;;;;;;;;;;23.67;78.43;96924.06;621968;226;67967;-67
2022/08/29 12:23:16;;;;;;;;;;;;;;;23.68;78.77;96927.54;626115;226;65132;-66
2022/08/29 12:25:53;;;;;;;;;;;;;;;23.67;79.63;96924.06;625981;226;64501;-69
2022/08/29 12:28:40;;;;;;;;;;;;;;;23.67;79.61;96928.64;626076;226;62369;-66
2022/08/29 12:31:00;;;;;;;;;;;;;;;23.67;77.87;96926.75;623479;226;65228;-66
2022/08/29 12:33:49;;;;;;;;;;;;;;;23.67;79.14;96929.43;625777;226;44680;-67
2022/08/29 12:36:27;;;;;;;;;;;;;;;23.67;80.15;96925.95;626100;226;65265;-65
2022/08/29 12:39:06;;;;;;;;;;;;;;;23.65;80.94;96928.95;626023;226;65497;-66
2022/08/29 12:41:35;;;;;;;;;;;;;;;23.64;81.14;96927.33;626066;226;64846;-67
2022/08/29 12:44:05;;;;;;;;;;;;;;;23.64;81.36;96924.65;625886;226;64639;-66
2022/08/29 12:46:34;;;;;;;;;;;;;;;23.63;81.49;96920.38;625951;226;64699;-67
2022/08/29 12:49:07;;;;;;;;;;;;;;;23.64;81.38;96921.97;626084;226;64955;-64
2022/08/29 12:51:39;;;;;;;;;;;;;;;23.64;78.45;96919.28;623720;226;62153;-65
2022/08/29 12:54:09;;;;;;;;;;;;;;;23.66;77.87;96922.48;625741;226;65026;-64
2022/08/29 12:56:41;;;;;;;;;;;;;;;23.66;78.85;96909.06;625835;226;46613;-63
2022/08/29 12:59:11;;;;;;;;;;;;;;;23.67;79.79;96912.55;625929;226;62448;-62
2022/08/29 13:01:40;;;;;;;;;;;;;;;23.66;80.24;96909.06;625867;226;65103;-62
2022/08/29 13:04:13;;;;;;;;;;;;;;;23.67;80.39;96912.55;626048;226;64565;-64
2022/08/29 13:06:55;;;;;;;;;;;;;;;23.67;80.55;96915.22;626097;226;62137;-65
2022/08/29 13:09:25;;;;;;;;;;;;;;;23.66;80.75;96917.11;626040;226;64861;-62
2022/08/29 13:12:14;;;;;;;;;;;;;;;23.66;80.77;96917.11;625820;226;64733;-64
2022/08/29 13:14:55;;;;;;;;;;;;;;;23.67;80.50;96909.86;625176;226;62135;-65
2022/08/29 13:17:31;;;;;;;;;;;;;;;23.70;76.96;96910.06;624936;227;65215;-63
2022/08/29 13:20:17;;;;;;;;;;;;;;;23.74;79.27;96913.02;624889;227;64819;-61